createdAt,value
2024-03-01T00:00:12.110Z,48.78
2024-03-01T00:02:39.677Z,48.64
2024-03-01T00:05:06.646Z,48.71
2024-03-01T00:07:33.137Z,48.85
2024-03-01T00:09:59.646Z,49.11
2024-03-01T00:12:26.178Z,49.19
2024-03-01T00:14:52.634Z,48.98
2024-03-01T00:17:19.310Z,48.90
2024-03-01T00:19:48.536Z,48.98
2024-03-01T00:22:16.351Z,49.50
2024-03-01T00:24:43.339Z,49.86
2024-03-01T00:27:09.842Z,49.68
2024-03-01T00:29:36.460Z,49.73
2024-03-01T00:32:02.910Z,49.42
2024-03-01T00:34:29.395Z,49.41
2024-03-01T00:36:55.900Z,49.69
2024-03-01T00:39:22.323Z,49.73
2024-03-01T00:41:48.801Z,49.96
2024-03-01T00:44:15.188Z,50.31
2024-03-01T00:46:41.615Z,50.11
2024-03-01T00:49:08.263Z,50.16
2024-03-01T00:51:34.679Z,50.20
2024-03-01T00:54:01.121Z,50.06
2024-03-01T00:56:27.814Z,50.33
2024-03-01T00:58:54.272Z,49.89
2024-03-01T01:01:20.860Z,49.79
2024-03-01T01:03:47.474Z,49.99
2024-03-01T01:06:13.870Z,49.86
2024-03-01T01:08:40.279Z,49.76
2024-03-01T01:11:06.779Z,50.00
2024-03-01T01:13:33.361Z,50.00
2024-03-01T01:15:59.828Z,49.59
2024-03-01T01:18:26.284Z,49.85
2024-03-01T01:20:52.805Z,49.95
2024-03-01T01:23:19.195Z,49.76
2024-03-01T01:25:45.678Z,49.64
2024-03-01T01:28:12.251Z,49.84
2024-03-01T01:30:38.929Z,49.78
2024-03-01T01:33:06.438Z,49.77
2024-03-01T01:35:33.199Z,49.89
2024-03-01T01:38:00.535Z,49.68
2024-03-01T01:40:31.607Z,49.69
2024-03-01T01:42:59.098Z,49.95
2024-03-01T01:45:25.792Z,49.87
2024-03-01T01:47:52.690Z,50.06
2024-03-01T01:50:19.686Z,50.06
2024-03-01T01:52:46.317Z,50.13
2024-03-01T01:55:13.780Z,50.25
2024-03-01T01:57:41.887Z,50.18
2024-03-01T02:00:08.806Z,50.37
2024-03-01T02:02:35.281Z,50.45
2024-03-01T02:05:01.775Z,50.39
2024-03-01T02:07:28.254Z,50.26
2024-03-01T02:09:54.728Z,50.44
2024-03-01T02:12:23.101Z,50.44
2024-03-01T02:14:49.649Z,50.47
2024-03-01T02:17:16.239Z,50.55
2024-03-01T02:19:42.679Z,50.32
2024-03-01T02:22:20.409Z,50.49
2024-03-01T02:24:46.925Z,50.66
2024-03-01T02:27:13.372Z,50.38
2024-03-01T02:29:40.065Z,50.61
2024-03-01T02:32:07.056Z,50.52
2024-03-01T02:34:33.656Z,50.67
2024-03-01T02:37:00.189Z,50.82
2024-03-01T02:39:27.215Z,50.79
2024-03-01T02:41:54.049Z,50.79
2024-03-01T02:44:20.556Z,50.71
2024-03-01T02:46:46.993Z,50.83
2024-03-01T02:49:13.445Z,50.92
2024-03-01T02:51:41.898Z,51.01
2024-03-01T02:54:08.334Z,51.03
2024-03-01T02:56:34.747Z,51.17
2024-03-01T02:59:01.550Z,51.57
2024-03-01T03:01:28.063Z,51.38
2024-03-01T03:03:54.551Z,51.43
2024-03-01T03:06:21.055Z,51.71
2024-03-01T03:08:47.504Z,51.61
2024-03-01T03:11:14.800Z,51.48
2024-03-01T03:13:41.435Z,51.48
2024-03-01T03:16:08.592Z,51.48
2024-03-01T03:18:35.068Z,51.64
2024-03-01T03:21:01.502Z,51.68
2024-03-01T03:23:27.934Z,51.67
2024-03-01T03:25:54.398Z,51.64
2024-03-01T03:28:23.227Z,51.71
2024-03-01T03:30:50.088Z,51.63
2024-03-01T03:33:16.789Z,51.73
2024-03-01T03:35:43.360Z,51.63
2024-03-01T03:38:10.315Z,51.71
2024-03-01T03:40:36.891Z,51.56
2024-03-01T03:43:04.267Z,51.64
2024-03-01T03:45:30.844Z,51.39
2024-03-01T03:47:57.326Z,51.45
2024-03-01T03:50:26.700Z,51.38
2024-03-01T03:52:53.106Z,51.20
2024-03-01T03:55:19.667Z,51.51
2024-03-01T03:57:46.293Z,51.38
2024-03-01T04:00:16.818Z,51.53
2024-03-01T04:02:44.987Z,51.67
2024-03-01T04:05:11.566Z,52.02
2024-03-01T04:07:38.719Z,52.16
2024-03-01T04:10:10.323Z,52.20
2024-03-01T04:12:37.646Z,52.43
2024-03-01T04:15:08.264Z,52.66
2024-03-01T04:17:35.015Z,52.78
2024-03-01T04:20:03.935Z,52.82
2024-03-01T04:22:30.482Z,53.23
2024-03-01T04:24:56.987Z,53.41
2024-03-01T04:27:23.506Z,53.50
2024-03-01T04:29:50.205Z,53.62
2024-03-01T04:32:18.814Z,54.01
2024-03-01T04:34:45.989Z,53.79
2024-03-01T04:37:15.683Z,53.90
2024-03-01T04:39:42.491Z,53.75
2024-03-01T04:42:09.977Z,54.13
2024-03-01T04:44:40.651Z,53.91
2024-03-01T04:47:07.070Z,53.96
2024-03-01T04:49:33.510Z,53.71
2024-03-01T04:52:00.111Z,54.01
2024-03-01T04:54:26.558Z,54.03
2024-03-01T04:56:52.985Z,53.69
2024-03-01T04:59:19.480Z,54.00
2024-03-01T05:01:46.006Z,54.05
2024-03-01T05:04:12.532Z,53.87
2024-03-01T05:06:38.977Z,54.17
2024-03-01T05:09:08.198Z,54.19
2024-03-01T05:11:37.218Z,54.45
2024-03-01T05:14:06.867Z,54.14
2024-03-01T05:16:33.367Z,54.54
2024-03-01T05:18:59.931Z,54.68
2024-03-01T05:21:26.375Z,54.78
2024-03-01T05:23:52.926Z,54.75
2024-03-01T05:26:19.378Z,54.66
2024-03-01T05:28:45.912Z,55.10
2024-03-01T05:31:20.390Z,55.15
2024-03-01T05:33:50.650Z,55.02
2024-03-01T05:36:17.115Z,55.27
2024-03-01T05:38:43.501Z,55.20
2024-03-01T05:41:09.941Z,55.49
2024-03-01T05:43:36.400Z,55.41
2024-03-01T05:46:16.768Z,55.45
2024-03-01T05:48:43.919Z,55.77
2024-03-01T05:51:12.315Z,55.28
2024-03-01T05:53:42.808Z,55.41
2024-03-01T05:56:18.316Z,55.28
2024-03-01T05:58:46.215Z,55.60
2024-03-01T06:01:13.380Z,55.21
2024-03-01T06:03:39.797Z,55.51
2024-03-01T06:06:08.500Z,55.43
2024-03-01T06:08:35.423Z,55.34
2024-03-01T06:11:02.143Z,55.11
2024-03-01T06:13:28.613Z,55.59
2024-03-01T06:15:55.150Z,55.37
2024-03-01T06:18:21.682Z,55.60
2024-03-01T06:20:48.155Z,55.57
2024-03-01T06:23:14.587Z,55.13
2024-03-01T06:25:41.144Z,55.26
2024-03-01T06:28:07.640Z,55.46
2024-03-01T06:30:34.077Z,55.18
2024-03-01T06:33:00.518Z,55.25
2024-03-01T06:35:26.954Z,55.25
2024-03-01T06:37:53.485Z,55.22
2024-03-01T06:40:19.932Z,55.65
2024-03-01T06:42:46.513Z,55.51
2024-03-01T06:45:14.308Z,55.46
2024-03-01T06:47:41.609Z,55.51
2024-03-01T06:50:10.213Z,55.35
2024-03-01T06:52:37.170Z,55.46
2024-03-01T06:55:04.646Z,55.50
2024-03-01T06:57:31.066Z,55.48
2024-03-01T06:59:57.922Z,55.39
2024-03-01T07:02:24.502Z,55.09
2024-03-01T07:04:50.902Z,55.25
2024-03-01T07:07:20.280Z,55.36
2024-03-01T07:09:47.802Z,55.22
2024-03-01T07:12:14.218Z,55.18
2024-03-01T07:14:41.199Z,55.25
2024-03-01T07:17:07.710Z,55.40
2024-03-01T07:19:34.272Z,55.41
2024-03-01T07:22:01.062Z,55.26
2024-03-01T07:24:27.499Z,55.37
2024-03-01T07:26:53.893Z,55.56
2024-03-01T07:29:20.322Z,55.41
2024-03-01T07:31:46.782Z,55.21
2024-03-01T07:34:13.654Z,55.54
2024-03-01T07:36:40.167Z,55.42
2024-03-01T07:39:06.790Z,55.62
2024-03-01T07:41:33.225Z,55.23
2024-03-01T07:43:59.698Z,55.53
2024-03-01T07:46:26.226Z,55.47
2024-03-01T07:48:52.776Z,55.67
2024-03-01T07:51:19.240Z,55.63
2024-03-01T07:53:47.208Z,55.61
2024-03-01T07:56:13.995Z,55.52
2024-03-01T07:58:40.584Z,55.42
2024-03-01T08:01:07.294Z,55.52
2024-03-01T08:03:35.621Z,55.63
2024-03-01T08:06:02.224Z,55.45
2024-03-01T08:08:42.021Z,55.58
2024-03-01T08:11:10.278Z,55.54
2024-03-01T08:13:37.971Z,55.64
2024-03-01T08:16:08.716Z,55.56
2024-03-01T08:18:39.218Z,55.44
2024-03-01T08:21:08.583Z,55.87
2024-03-01T08:23:39.762Z,55.68
2024-03-01T08:26:13.131Z,55.63
2024-03-01T08:28:41.452Z,55.71
2024-03-01T08:31:21.589Z,55.77
2024-03-01T08:33:49.178Z,55.69
2024-03-01T08:36:15.636Z,55.83
2024-03-01T08:38:42.439Z,55.80
2024-03-01T08:41:10.667Z,55.80
2024-03-01T08:43:38.481Z,55.77
2024-03-01T08:46:06.122Z,55.68
2024-03-01T08:48:34.007Z,55.58
2024-03-01T08:51:01.859Z,55.56
2024-03-01T08:53:41.089Z,55.52
2024-03-01T08:56:21.744Z,55.65
2024-03-01T08:58:49.519Z,56.06
2024-03-01T09:01:46.395Z,55.97
2024-03-01T09:04:19.025Z,56.34
2024-03-01T09:06:56.254Z,56.05
2024-03-01T09:09:23.970Z,56.42
2024-03-01T09:11:53.215Z,56.12
2024-03-01T09:14:29.344Z,56.59
2024-03-01T09:16:55.756Z,56.69
2024-03-01T09:19:24.400Z,56.52
2024-03-01T09:21:51.252Z,56.63
2024-03-01T09:24:18.205Z,56.66
2024-03-01T09:26:46.828Z,56.68
2024-03-01T09:29:34.460Z,56.81
2024-03-01T09:32:01.262Z,56.73
2024-03-01T09:34:33.388Z,56.75
2024-03-01T09:36:59.999Z,56.99
2024-03-01T09:39:26.611Z,57.46
2024-03-01T09:42:14.594Z,57.26
2024-03-01T09:44:55.137Z,57.37
2024-03-01T09:47:54.013Z,57.71
2024-03-01T09:50:55.495Z,57.81
2024-03-01T09:53:59.072Z,57.63
2024-03-01T09:56:38.161Z,57.75
2024-03-01T09:59:19.450Z,57.54
2024-03-01T10:01:59.814Z,57.81
2024-03-01T10:04:35.825Z,57.90
2024-03-01T10:07:29.410Z,58.11
2024-03-01T10:10:36.382Z,58.22
2024-03-01T10:13:08.830Z,58.38
2024-03-01T10:15:52.569Z,58.42
2024-03-01T10:18:34.745Z,58.65
2024-03-01T10:21:12.385Z,58.57
2024-03-01T10:24:00.901Z,58.28
2024-03-01T10:26:33.230Z,58.07
2024-03-01T10:29:17.636Z,57.84
2024-03-01T10:31:47.034Z,57.52
2024-03-01T10:34:32.994Z,57.32
2024-03-01T10:37:09.135Z,57.38
2024-03-01T10:39:48.250Z,57.25
2024-03-01T10:42:17.656Z,57.29
2024-03-01T10:44:53.296Z,57.12
2024-03-01T10:47:24.883Z,56.53
2024-03-01T10:49:59.971Z,55.93
2024-03-01T10:52:39.428Z,55.73
2024-03-01T10:55:13.593Z,55.24
2024-03-01T10:57:59.299Z,54.75
2024-03-01T11:00:29.557Z,54.50
2024-03-01T11:03:09.079Z,54.29
2024-03-01T11:05:50.850Z,53.84
2024-03-01T11:09:02.525Z,52.68
2024-03-01T11:11:37.942Z,52.28
2024-03-01T11:14:09.867Z,51.42
2024-03-01T11:16:39.738Z,50.97
2024-03-01T11:19:10.656Z,51.07
2024-03-01T11:21:40.149Z,51.04
2024-03-01T11:24:20.691Z,51.40
2024-03-01T11:26:50.690Z,51.29
2024-03-01T11:29:24.682Z,51.25
2024-03-01T11:31:56.030Z,51.27
2024-03-01T11:34:49.055Z,51.52
2024-03-01T11:37:24.710Z,50.43
2024-03-01T11:40:24.253Z,51.42
2024-03-01T11:43:05.858Z,51.39
2024-03-01T11:46:01.751Z,51.27
2024-03-01T11:48:50.489Z,51.31
2024-03-01T11:51:50.664Z,51.00
2024-03-01T11:54:37.750Z,50.93
2024-03-01T11:57:41.726Z,50.65
2024-03-01T12:00:41.710Z,51.04
2024-03-01T12:03:26.254Z,50.73
2024-03-01T12:06:12.146Z,51.02
2024-03-01T12:08:55.356Z,50.67
2024-03-01T12:11:24.969Z,50.70
2024-03-01T12:14:00.550Z,51.14
2024-03-01T12:16:54.349Z,51.05
2024-03-01T12:19:59.563Z,50.68
2024-03-01T12:22:47.512Z,50.56
2024-03-01T12:25:15.983Z,50.62
2024-03-01T12:27:51.574Z,50.70
2024-03-01T12:30:34.019Z,50.53
2024-03-01T12:33:26.171Z,50.41
2024-03-01T12:36:08.475Z,50.51
2024-03-01T12:38:46.867Z,50.33
2024-03-01T12:41:31.961Z,50.20
2024-03-01T12:44:17.422Z,50.16
2024-03-01T12:47:09.598Z,50.16
2024-03-01T12:50:13.450Z,49.67
2024-03-01T12:53:19.133Z,49.57
2024-03-01T12:56:00.870Z,49.25
2024-03-01T12:59:06.944Z,49.06
2024-03-01T13:01:53.394Z,49.04
2024-03-01T13:05:00.188Z,48.83
2024-03-01T13:07:30.476Z,49.08
2024-03-01T13:10:00.926Z,49.15
2024-03-01T13:12:28.873Z,49.34
2024-03-01T13:15:18.727Z,49.39
2024-03-01T13:17:52.998Z,49.38
2024-03-01T13:20:50.839Z,49.17
2024-03-01T13:23:29.501Z,49.45
2024-03-01T13:26:06.599Z,49.12
2024-03-01T13:28:33.148Z,49.02
2024-03-01T13:31:08.509Z,49.09
2024-03-01T13:33:47.235Z,48.94
2024-03-01T13:36:24.625Z,48.62
2024-03-01T13:39:12.116Z,48.93
2024-03-01T13:41:45.130Z,48.82
2024-03-01T13:44:26.521Z,48.56
2024-03-01T13:47:20.755Z,48.71
2024-03-01T13:49:59.392Z,48.35
2024-03-01T13:52:26.097Z,48.03
2024-03-01T13:54:53.413Z,47.98
2024-03-01T13:57:24.265Z,48.17
2024-03-01T13:59:50.876Z,47.91
2024-03-01T14:02:17.495Z,48.76
2024-03-01T14:04:44.253Z,47.95
2024-03-01T14:07:17.485Z,48.13
2024-03-01T14:09:47.947Z,48.08
2024-03-01T14:12:14.505Z,47.79
2024-03-01T14:14:41.728Z,48.22
2024-03-01T14:17:08.595Z,47.75
2024-03-01T14:19:35.165Z,47.86
2024-03-01T14:22:01.900Z,47.89
2024-03-01T14:24:28.386Z,47.81
2024-03-01T14:26:55.529Z,47.54
2024-03-01T14:29:22.077Z,47.72
2024-03-01T14:32:12.827Z,47.46
2024-03-01T14:34:40.221Z,47.44
2024-03-01T14:37:11.217Z,47.69
2024-03-01T14:39:40.657Z,47.51
2024-03-01T14:42:19.851Z,48.02
2024-03-01T14:44:46.616Z,47.59
2024-03-01T14:47:13.966Z,47.68
2024-03-01T14:49:43.283Z,47.97
2024-03-01T14:52:13.599Z,48.04
2024-03-01T14:54:40.285Z,47.91
2024-03-01T14:57:07.249Z,47.94
2024-03-01T14:59:36.802Z,47.74
2024-03-01T15:02:04.555Z,47.77
2024-03-01T15:04:31.192Z,47.34
2024-03-01T15:06:59.453Z,47.18
2024-03-01T15:09:26.197Z,47.13
2024-03-01T15:11:53.266Z,47.49
2024-03-01T15:14:24.939Z,47.36
2024-03-01T15:16:51.634Z,47.19
2024-03-01T15:19:19.611Z,47.00
2024-03-01T15:21:47.271Z,46.69
2024-03-01T15:24:21.892Z,47.10
2024-03-01T15:26:50.007Z,46.97
2024-03-01T15:29:16.972Z,47.00
2024-03-01T15:31:44.266Z,47.00
2024-03-01T15:34:10.944Z,47.38
2024-03-01T15:36:37.626Z,47.60
2024-03-01T15:39:04.296Z,47.96
2024-03-01T15:41:33.147Z,47.82
2024-03-01T15:44:00.234Z,47.80
2024-03-01T15:46:27.810Z,48.18
2024-03-01T15:48:56.125Z,47.81
2024-03-01T15:51:23.514Z,47.95
2024-03-01T15:53:50.715Z,48.13
2024-03-01T15:56:17.264Z,47.89
2024-03-01T15:58:43.851Z,47.95
2024-03-01T16:01:13.163Z,48.12
2024-03-01T16:03:39.842Z,48.21
2024-03-01T16:06:06.856Z,48.24
2024-03-01T16:08:33.507Z,47.96
2024-03-01T16:11:00.268Z,47.85
2024-03-01T16:13:31.863Z,47.96
2024-03-01T16:16:00.342Z,47.81
2024-03-01T16:18:30.287Z,47.77
2024-03-01T16:20:58.391Z,47.64
2024-03-01T16:23:27.101Z,47.75
2024-03-01T16:25:54.465Z,47.98
2024-03-01T16:28:26.151Z,48.04
2024-03-01T16:31:01.416Z,48.22
2024-03-01T16:33:28.803Z,48.08
2024-03-01T16:36:07.339Z,48.36
2024-03-01T16:38:42.219Z,48.39
2024-03-01T16:41:32.663Z,48.48
2024-03-01T16:44:02.250Z,48.25
2024-03-01T16:46:36.291Z,48.54
2024-03-01T16:49:04.746Z,48.42
2024-03-01T16:51:42.714Z,48.51
2024-03-01T16:54:27.810Z,48.75
2024-03-01T16:56:59.500Z,48.89
2024-03-01T16:59:26.271Z,48.91
2024-03-01T17:01:53.448Z,49.01
2024-03-01T17:04:21.893Z,49.26
2024-03-01T17:06:49.232Z,49.38
2024-03-01T17:09:17.709Z,49.61
2024-03-01T17:11:45.816Z,49.88
2024-03-01T17:14:13.820Z,49.72
2024-03-01T17:16:40.384Z,49.73
2024-03-01T17:19:22.715Z,49.86
2024-03-01T17:21:49.203Z,49.96
2024-03-01T17:24:15.660Z,49.96
2024-03-01T17:26:42.097Z,50.10
2024-03-01T17:29:09.230Z,50.32
2024-03-01T17:31:35.689Z,50.39
2024-03-01T17:34:02.195Z,50.22
2024-03-01T17:36:28.740Z,50.19
2024-03-01T17:38:55.150Z,50.30
2024-03-01T17:41:21.589Z,49.99
2024-03-01T17:43:48.040Z,50.37
2024-03-01T17:46:14.541Z,49.87
2024-03-01T17:48:41.008Z,49.89
2024-03-01T17:51:07.606Z,49.97
2024-03-01T17:53:34.154Z,49.71
2024-03-01T17:56:00.579Z,49.43
2024-03-01T17:58:27.016Z,49.35
2024-03-01T18:00:53.531Z,49.15
2024-03-01T18:03:20.033Z,49.25
2024-03-01T18:05:46.984Z,48.54
2024-03-01T18:08:13.425Z,48.65
2024-03-01T18:10:39.898Z,48.06
2024-03-01T18:13:07.120Z,48.62
2024-03-01T18:15:33.569Z,48.35
2024-03-01T18:18:00.050Z,48.04
2024-03-01T18:20:26.613Z,48.09
2024-03-01T18:22:53.151Z,47.55
2024-03-01T18:25:19.706Z,47.79
2024-03-01T18:27:46.648Z,47.75
2024-03-01T18:30:13.803Z,47.82
2024-03-01T18:32:40.288Z,47.75
2024-03-01T18:35:06.974Z,47.78
2024-03-01T18:37:33.459Z,47.72
2024-03-01T18:40:00.044Z,48.18
2024-03-01T18:42:26.636Z,47.73
2024-03-01T18:44:53.085Z,48.01
2024-03-01T18:47:20.666Z,47.88
2024-03-01T18:49:47.434Z,47.96
2024-03-01T18:52:13.908Z,48.06
2024-03-01T18:54:40.319Z,47.90
2024-03-01T18:57:07.444Z,48.05
2024-03-01T18:59:34.264Z,48.04
2024-03-01T19:02:05.339Z,48.03
2024-03-01T19:04:33.448Z,47.95
2024-03-01T19:07:00.037Z,48.03
2024-03-01T19:09:26.520Z,47.99
2024-03-01T19:11:52.982Z,48.00
2024-03-01T19:14:21.026Z,48.10
2024-03-01T19:16:47.546Z,48.13
2024-03-01T19:19:14.314Z,48.10
2024-03-01T19:21:40.741Z,48.31
2024-03-01T19:24:07.668Z,48.31
2024-03-01T19:26:39.072Z,48.27
2024-03-01T19:29:05.864Z,48.10
2024-03-01T19:31:32.867Z,47.91
2024-03-01T19:33:59.275Z,48.19
2024-03-01T19:36:25.694Z,48.19
2024-03-01T19:38:52.877Z,48.22
2024-03-01T19:41:20.164Z,48.32
2024-03-01T19:43:47.763Z,48.93
2024-03-01T19:46:14.390Z,48.49
2024-03-01T19:48:40.794Z,48.37
2024-03-01T19:51:07.205Z,48.52
2024-03-01T19:53:33.599Z,48.74
2024-03-01T19:56:00.263Z,48.59
2024-03-01T19:58:26.881Z,48.45
2024-03-01T20:00:53.358Z,48.64
2024-03-01T20:03:21.082Z,48.83
2024-03-01T20:05:47.537Z,48.90
2024-03-01T20:08:14.122Z,48.94
2024-03-01T20:10:40.807Z,49.75
2024-03-01T20:13:08.507Z,49.05
2024-03-01T20:15:36.419Z,49.21
2024-03-01T20:18:02.932Z,49.56
2024-03-01T20:20:29.630Z,49.54
2024-03-01T20:22:56.069Z,49.74
2024-03-01T20:25:25.828Z,50.18
2024-03-01T20:27:52.826Z,50.19
2024-03-01T20:30:19.341Z,50.21
2024-03-01T20:32:45.826Z,50.47
2024-03-01T20:35:12.382Z,50.65
2024-03-01T20:37:38.926Z,50.79
2024-03-01T20:40:07.911Z,50.96
2024-03-01T20:42:34.434Z,51.23
2024-03-01T20:45:00.835Z,51.64
2024-03-01T20:47:27.395Z,51.78
2024-03-01T20:49:53.854Z,51.68
2024-03-01T20:52:20.301Z,51.94
2024-03-01T20:54:46.815Z,52.04
2024-03-01T20:57:13.277Z,52.15
2024-03-01T20:59:39.739Z,52.43
2024-03-01T21:02:06.941Z,52.00
2024-03-01T21:04:33.838Z,52.23
2024-03-01T21:07:01.301Z,52.40
2024-03-01T21:09:27.749Z,52.34
2024-03-01T21:11:54.384Z,52.70
2024-03-01T21:14:21.220Z,52.51
2024-03-01T21:16:47.728Z,52.56
2024-03-01T21:19:14.421Z,52.87
2024-03-01T21:24:10.193Z,52.85
2024-03-01T21:26:36.636Z,52.89
2024-03-01T21:29:03.059Z,53.16
2024-03-01T21:31:29.477Z,53.11
2024-03-01T21:33:56.144Z,53.10
2024-03-01T21:36:22.695Z,53.29
2024-03-01T21:38:49.135Z,53.63
2024-03-01T21:41:15.578Z,53.64
2024-03-01T21:43:42.067Z,53.49
2024-03-01T21:46:08.940Z,53.49
2024-03-01T21:48:36.002Z,53.45
2024-03-01T21:51:02.463Z,53.77
2024-03-01T21:53:28.902Z,53.86
2024-03-01T21:55:55.322Z,53.96
2024-03-01T21:58:23.087Z,54.00
2024-03-01T22:00:49.859Z,53.99
2024-03-01T22:03:17.524Z,54.04
2024-03-01T22:05:45.767Z,53.91
2024-03-01T22:08:14.503Z,54.08
2024-03-01T22:10:41.546Z,54.14
2024-03-01T22:13:08.005Z,54.17
2024-03-01T22:15:34.567Z,54.03
2024-03-01T22:18:01.398Z,54.17
2024-03-01T22:20:27.826Z,54.05
2024-03-01T22:22:54.276Z,54.06
2024-03-01T22:25:20.692Z,54.04
2024-03-01T22:27:47.129Z,54.05
2024-03-01T22:30:13.659Z,54.42
2024-03-01T22:32:40.295Z,54.41
2024-03-01T22:35:07.344Z,54.34
2024-03-01T22:37:38.155Z,54.23
2024-03-01T22:40:06.076Z,54.22
2024-03-01T22:42:32.722Z,54.26
2024-03-01T22:45:00.267Z,54.07
2024-03-01T22:47:26.977Z,54.50
2024-03-01T22:49:54.962Z,54.51
2024-03-01T22:52:37.035Z,54.10
2024-03-01T22:55:06.309Z,54.44
2024-03-01T22:57:39.112Z,54.19
2024-03-01T23:00:33.096Z,54.42
2024-03-01T23:03:07.898Z,54.50
2024-03-01T23:06:14.535Z,54.52
2024-03-01T23:08:45.059Z,54.29
2024-03-01T23:11:37.460Z,54.23
2024-03-01T23:14:07.268Z,54.39
2024-03-01T23:16:33.776Z,54.52
2024-03-01T23:19:00.518Z,54.46
2024-03-01T23:21:28.121Z,54.68
2024-03-01T23:23:56.125Z,54.40
2024-03-01T23:26:22.758Z,54.71
2024-03-01T23:28:49.224Z,54.80
2024-03-01T23:31:15.699Z,54.73
2024-03-01T23:33:42.294Z,54.43
2024-03-01T23:36:08.791Z,54.59
2024-03-01T23:38:35.217Z,54.51
2024-03-01T23:41:01.944Z,54.61
2024-03-01T23:43:28.392Z,54.55
2024-03-01T23:45:54.996Z,54.73
2024-03-01T23:48:22.853Z,54.70
2024-03-01T23:50:49.379Z,54.53
2024-03-01T23:53:21.569Z,54.61
2024-03-01T23:55:48.064Z,54.51
2024-03-01T23:58:14.492Z,54.66
